DLH577 FACT-EDDF
Flight info
| Callsign | DLH577 |
|---|---|
| Flight time | N/A |
| Altitude | 35000 |
| Route | DCT CTV DCT KODES UN186 ATUPI/N0498F360 UM436 ANVAG UN187 VNA UR526 LIKAD/N0497F380 DCT RASOP UG861 ARASI DCT KOKAM UA604 AS UR978 MELOG/N0486F400 UR978 CSO UA605 CIRTA DCT ERETI DCT OMARD DCT NOSTA DCT NOPMU DCT ABESI DCT LADOL T163 EMPAX EMPAX5B |
| Aircraft | B789/H-SDE1E2E3FGHIJ2J3J4J5M1RWXY/LB1D1 |
Departure
| Time | N/A |
|---|---|
| Airport | Cape Town International Airport (FACT) |
Arrival
| Time | 2026-05-05 17:49 |
|---|---|
| Airport | Frankfurt Main Airport (EDDF) |
| Time | Latitude | Longitude | Altitude | Speed | Heading |
|---|---|---|---|---|---|
| 2026-05-05 16:47 | 44.80979 | 8.33109 | 38955 ft | 512 kts | 16° |
| 2026-05-05 16:47 | 44.84336 | 8.34835 | 38962 ft | 512 kts | 16° |
| 2026-05-05 16:47 | 44.90997 | 8.38266 | 39294 ft | 512 kts | 16° |
| 2026-05-05 16:48 | 44.94361 | 8.40004 | 39553 ft | 512 kts | 17° |
| 2026-05-05 16:48 | 44.97707 | 8.41733 | 39787 ft | 512 kts | 17° |
| 2026-05-05 16:48 | 45.01028 | 8.43450 | 40032 ft | 511 kts | 17° |
| 2026-05-05 16:48 | 45.04373 | 8.45183 | 40267 ft | 511 kts | 17° |
| 2026-05-05 16:49 | 45.07695 | 8.46907 | 40505 ft | 511 kts | 17° |
| 2026-05-05 16:49 | 45.11033 | 8.48640 | 40747 ft | 511 kts | 17° |
| 2026-05-05 16:49 | 45.14377 | 8.50379 | 41001 ft | 511 kts | 17° |
| 2026-05-05 16:49 | 45.17712 | 8.52116 | 41225 ft | 511 kts | 17° |
| 2026-05-05 16:50 | 45.21037 | 8.53849 | 41459 ft | 511 kts | 17° |
| 2026-05-05 16:50 | 45.24384 | 8.55597 | 41683 ft | 511 kts | 17° |
| 2026-05-05 16:50 | 45.27722 | 8.57341 | 41899 ft | 511 kts | 18° |
| 2026-05-05 16:50 | 45.31036 | 8.59075 | 42111 ft | 511 kts | 18° |
| 2026-05-05 16:51 | 45.34382 | 8.60828 | 42333 ft | 511 kts | 18° |
| 2026-05-05 16:51 | 45.37690 | 8.62563 | 42542 ft | 511 kts | 18° |
| 2026-05-05 16:51 | 45.41042 | 8.64324 | 42757 ft | 511 kts | 18° |
| 2026-05-05 16:51 | 45.44385 | 8.66082 | 42967 ft | 511 kts | 18° |
| 2026-05-05 16:52 | 45.51081 | 8.69610 | 42989 ft | 515 kts | 18° |
| 2026-05-05 16:52 | 45.57750 | 8.73135 | 42964 ft | 511 kts | 18° |
| 2026-05-05 16:53 | 45.64396 | 8.76654 | 42963 ft | 510 kts | 18° |
| 2026-05-05 16:53 | 45.71038 | 8.80181 | 42964 ft | 510 kts | 18° |
| 2026-05-05 16:54 | 45.77682 | 8.83717 | 42962 ft | 510 kts | 18° |
| 2026-05-05 16:54 | 45.84324 | 8.87262 | 42985 ft | 509 kts | 18° |
| 2026-05-05 16:55 | 45.90982 | 8.90823 | 42994 ft | 509 kts | 18° |
| 2026-05-05 16:55 | 45.97587 | 8.94367 | 42992 ft | 508 kts | 18° |
| 2026-05-05 16:56 | 46.04177 | 8.97911 | 42996 ft | 507 kts | 18° |
| 2026-05-05 16:56 | 46.10770 | 9.01465 | 42993 ft | 506 kts | 18° |
| 2026-05-05 16:57 | 46.17530 | 9.04041 | 43016 ft | 497 kts | 359° |
| 2026-05-05 16:57 | 46.24402 | 9.03934 | 43008 ft | 495 kts | 355° |
| 2026-05-05 16:58 | 46.31272 | 9.03608 | 42995 ft | 496 kts | 355° |
| 2026-05-05 16:58 | 46.38195 | 9.03327 | 42989 ft | 495 kts | 355° |
| 2026-05-05 16:59 | 46.45044 | 9.03020 | 42979 ft | 494 kts | 355° |
| 2026-05-05 16:59 | 46.51916 | 9.02726 | 42960 ft | 494 kts | 355° |
| 2026-05-05 17:00 | 46.58774 | 9.02426 | 42946 ft | 495 kts | 355° |
| 2026-05-05 17:00 | 46.65683 | 9.02124 | 42935 ft | 494 kts | 355° |
| 2026-05-05 17:01 | 46.72543 | 9.01825 | 42929 ft | 494 kts | 355° |
| 2026-05-05 17:01 | 46.79394 | 9.01524 | 42909 ft | 494 kts | 355° |
| 2026-05-05 17:02 | 46.85109 | 9.01272 | 42900 ft | 494 kts | 355° |
| 2026-05-05 17:02 | 46.93116 | 9.00919 | 42869 ft | 494 kts | 355° |
| 2026-05-05 17:03 | 46.98835 | 9.00667 | 42872 ft | 493 kts | 355° |
| 2026-05-05 17:03 | 47.05705 | 9.00361 | 42875 ft | 495 kts | 355° |
| 2026-05-05 17:04 | 47.12622 | 9.00056 | 42867 ft | 495 kts | 355° |
| 2026-05-05 17:04 | 47.19488 | 8.99748 | 42873 ft | 496 kts | 356° |
| 2026-05-05 17:05 | 47.26398 | 8.99441 | 42875 ft | 496 kts | 356° |
| 2026-05-05 17:05 | 47.33295 | 8.99131 | 42876 ft | 497 kts | 356° |
| 2026-05-05 17:06 | 47.40250 | 8.98820 | 42879 ft | 497 kts | 356° |
| 2026-05-05 17:06 | 47.47152 | 8.98509 | 42879 ft | 498 kts | 356° |
| 2026-05-05 17:07 | 47.54061 | 8.98197 | 42861 ft | 498 kts | 356° |
| 2026-05-05 17:07 | 47.60997 | 8.97883 | 42869 ft | 498 kts | 356° |
| 2026-05-05 17:08 | 47.67899 | 8.97570 | 42854 ft | 498 kts | 356° |
| 2026-05-05 17:08 | 47.74850 | 8.97254 | 42851 ft | 498 kts | 356° |
| 2026-05-05 17:09 | 47.81724 | 8.96940 | 42845 ft | 498 kts | 356° |
| 2026-05-05 17:09 | 47.88651 | 8.96624 | 42857 ft | 498 kts | 356° |
| 2026-05-05 17:10 | 47.95603 | 8.96305 | 42846 ft | 498 kts | 356° |
| 2026-05-05 17:10 | 47.99060 | 8.96147 | 42560 ft | 494 kts | 356° |
| 2026-05-05 17:10 | 48.02479 | 8.95989 | 41763 ft | 498 kts | 356° |
| 2026-05-05 17:11 | 48.05956 | 8.95828 | 41117 ft | 498 kts | 356° |
| 2026-05-05 17:11 | 48.09423 | 8.95669 | 40482 ft | 497 kts | 356° |
| 2026-05-05 17:11 | 48.12861 | 8.95510 | 39837 ft | 498 kts | 356° |
| 2026-05-05 17:11 | 48.16344 | 8.95375 | 39159 ft | 499 kts | 360° |
| 2026-05-05 17:12 | 48.19780 | 8.95784 | 38461 ft | 501 kts | 4° |
| 2026-05-05 17:12 | 48.23270 | 8.96325 | 37680 ft | 501 kts | 4° |
| 2026-05-05 17:12 | 48.26708 | 8.96862 | 36960 ft | 499 kts | 4° |
| 2026-05-05 17:12 | 48.30182 | 8.97382 | 36196 ft | 499 kts | 4° |
| 2026-05-05 17:13 | 48.33646 | 8.97898 | 35401 ft | 500 kts | 4° |
| 2026-05-05 17:13 | 48.37119 | 8.98427 | 34574 ft | 501 kts | 4° |
| 2026-05-05 17:13 | 48.40563 | 8.98958 | 33706 ft | 502 kts | 4° |
| 2026-05-05 17:13 | 48.44052 | 8.99490 | 32800 ft | 503 kts | 4° |
| 2026-05-05 17:14 | 48.47550 | 9.00020 | 31999 ft | 501 kts | 4° |
| 2026-05-05 17:14 | 48.50979 | 9.00544 | 31322 ft | 500 kts | 4° |
| 2026-05-05 17:14 | 48.54473 | 9.01077 | 30638 ft | 508 kts | 4° |
| 2026-05-05 17:14 | 48.57985 | 9.01613 | 29941 ft | 513 kts | 4° |
| 2026-05-05 17:15 | 48.61564 | 9.02163 | 29193 ft | 512 kts | 4° |
| 2026-05-05 17:15 | 48.65046 | 9.02904 | 28495 ft | 508 kts | 8° |
| 2026-05-05 17:15 | 48.68549 | 9.03747 | 27779 ft | 504 kts | 7° |
| 2026-05-05 17:15 | 48.71964 | 9.04531 | 27106 ft | 499 kts | 7° |
| 2026-05-05 17:16 | 48.75387 | 9.05339 | 26421 ft | 493 kts | 7° |
| 2026-05-05 17:16 | 48.78784 | 9.06165 | 25740 ft | 488 kts | 7° |
| 2026-05-05 17:16 | 48.82095 | 9.06964 | 25075 ft | 483 kts | 7° |
| 2026-05-05 17:16 | 48.85404 | 9.07750 | 24415 ft | 479 kts | 7° |
| 2026-05-05 17:17 | 48.88699 | 9.08499 | 23772 ft | 473 kts | 4° |
| 2026-05-05 17:17 | 48.91933 | 9.08934 | 23078 ft | 469 kts | 4° |
| 2026-05-05 17:17 | 48.95165 | 9.09408 | 22423 ft | 463 kts | 4° |
| 2026-05-05 17:17 | 48.98363 | 9.09881 | 21789 ft | 457 kts | 4° |
| 2026-05-05 17:18 | 49.01506 | 9.10325 | 21169 ft | 452 kts | 4° |
| 2026-05-05 17:18 | 49.04635 | 9.10762 | 20548 ft | 448 kts | 4° |
| 2026-05-05 17:18 | 49.07688 | 9.11196 | 19942 ft | 443 kts | 4° |
| 2026-05-05 17:18 | 49.10766 | 9.11640 | 19327 ft | 439 kts | 4° |
| 2026-05-05 17:19 | 49.13763 | 9.12070 | 18732 ft | 435 kts | 4° |
| 2026-05-05 17:19 | 49.16773 | 9.12498 | 18134 ft | 431 kts | 4° |
| 2026-05-05 17:19 | 49.19758 | 9.12925 | 17497 ft | 426 kts | 4° |
| 2026-05-05 17:19 | 49.22691 | 9.13346 | 16923 ft | 421 kts | 4° |
| 2026-05-05 17:20 | 49.25569 | 9.13760 | 16348 ft | 418 kts | 4° |
| 2026-05-05 17:20 | 49.28457 | 9.14215 | 15769 ft | 414 kts | 8° |
| 2026-05-05 17:20 | 49.31264 | 9.15188 | 15213 ft | 412 kts | 12° |
| 2026-05-05 17:20 | 49.34040 | 9.16173 | 14649 ft | 411 kts | 11° |
| 2026-05-05 17:21 | 49.36831 | 9.17154 | 14074 ft | 407 kts | 11° |
| 2026-05-05 17:21 | 49.39552 | 9.18114 | 13517 ft | 404 kts | 11° |
| 2026-05-05 17:21 | 49.42294 | 9.19089 | 12948 ft | 400 kts | 11° |
| 2026-05-05 17:22 | 49.47667 | 9.21000 | 11859 ft | 395 kts | 12° |
| 2026-05-05 17:22 | 49.50351 | 9.21955 | 11299 ft | 392 kts | 12° |
| 2026-05-05 17:22 | 49.52973 | 9.22889 | 10874 ft | 388 kts | 12° |
| 2026-05-05 17:22 | 49.55595 | 9.23826 | 10796 ft | 384 kts | 12° |
| 2026-05-05 17:23 | 49.58241 | 9.24716 | 10794 ft | 388 kts | 11° |
| 2026-05-05 17:23 | 49.60871 | 9.25631 | 10762 ft | 391 kts | 12° |
| 2026-05-05 17:23 | 49.63460 | 9.26580 | 10519 ft | 373 kts | 12° |
| 2026-05-05 17:23 | 49.65937 | 9.27503 | 10268 ft | 369 kts | 12° |
| 2026-05-05 17:24 | 49.68443 | 9.28440 | 10032 ft | 367 kts | 13° |
| 2026-05-05 17:24 | 49.70916 | 9.29366 | 9829 ft | 361 kts | 13° |
| 2026-05-05 17:24 | 49.73345 | 9.30274 | 9827 ft | 361 kts | 13° |
| 2026-05-05 17:24 | 49.75778 | 9.31170 | 9828 ft | 362 kts | 11° |
| 2026-05-05 17:25 | 49.78281 | 9.31347 | 9710 ft | 363 kts | 352° |
| 2026-05-05 17:25 | 49.79949 | 9.30963 | 9545 ft | 362 kts | 348° |
| 2026-05-05 17:25 | 49.83178 | 9.29859 | 9194 ft | 356 kts | 345° |
| 2026-05-05 17:25 | 49.85579 | 9.28926 | 8943 ft | 355 kts | 344° |
| 2026-05-05 17:26 | 49.87969 | 9.27968 | 8677 ft | 353 kts | 344° |
| 2026-05-05 17:26 | 49.90318 | 9.27012 | 8412 ft | 340 kts | 343° |
| 2026-05-05 17:26 | 49.92554 | 9.26096 | 8134 ft | 324 kts | 343° |
| 2026-05-05 17:26 | 49.94662 | 9.25232 | 7875 ft | 310 kts | 343° |
| 2026-05-05 17:27 | 49.96713 | 9.24389 | 7586 ft | 297 kts | 344° |
| 2026-05-05 17:27 | 49.98691 | 9.23570 | 7312 ft | 290 kts | 343° |
| 2026-05-05 17:27 | 50.00519 | 9.22457 | 7030 ft | 284 kts | 324° |
| 2026-05-05 17:27 | 50.02051 | 9.20517 | 6811 ft | 280 kts | 316° |
| 2026-05-05 17:28 | 50.03462 | 9.18444 | 6810 ft | 280 kts | 314° |
| 2026-05-05 17:28 | 50.04847 | 9.16344 | 6810 ft | 280 kts | 314° |
| 2026-05-05 17:28 | 50.06260 | 9.14183 | 6672 ft | 284 kts | 314° |
| 2026-05-05 17:28 | 50.07655 | 9.12042 | 6424 ft | 281 kts | 314° |
| 2026-05-05 17:29 | 50.09039 | 9.09921 | 6076 ft | 281 kts | 314° |
| 2026-05-05 17:29 | 50.10419 | 9.07806 | 5691 ft | 274 kts | 314° |
| 2026-05-05 17:29 | 50.11771 | 9.05736 | 5293 ft | 268 kts | 314° |
| 2026-05-05 17:29 | 50.12945 | 9.03610 | 4896 ft | 258 kts | 295° |
| 2026-05-05 17:30 | 50.13569 | 9.01096 | 4523 ft | 236 kts | 284° |
| 2026-05-05 17:30 | 50.13535 | 8.98570 | 4125 ft | 232 kts | 252° |
| 2026-05-05 17:30 | 50.12995 | 8.96258 | 4006 ft | 223 kts | 249° |
| 2026-05-05 17:30 | 50.12452 | 8.93982 | 4007 ft | 218 kts | 249° |
| 2026-05-05 17:31 | 50.11955 | 8.91898 | 4007 ft | 200 kts | 249° |
| 2026-05-05 17:31 | 50.11471 | 8.89874 | 4000 ft | 196 kts | 249° |
| 2026-05-05 17:31 | 50.10997 | 8.87891 | 3998 ft | 195 kts | 249° |
| 2026-05-05 17:31 | 50.10530 | 8.85935 | 3992 ft | 192 kts | 249° |
| 2026-05-05 17:32 | 50.10076 | 8.84035 | 3794 ft | 183 kts | 249° |
| 2026-05-05 17:32 | 50.09643 | 8.82227 | 3570 ft | 176 kts | 249° |
| 2026-05-05 17:32 | 50.09222 | 8.80463 | 3328 ft | 171 kts | 250° |
| 2026-05-05 17:32 | 50.08824 | 8.78804 | 3293 ft | 158 kts | 250° |
| 2026-05-05 17:33 | 50.08442 | 8.77206 | 3297 ft | 158 kts | 249° |
| 2026-05-05 17:33 | 50.08048 | 8.75559 | 3241 ft | 165 kts | 249° |
| 2026-05-05 17:33 | 50.07661 | 8.73967 | 2895 ft | 154 kts | 249° |
| 2026-05-05 17:33 | 50.07284 | 8.72442 | 2390 ft | 146 kts | 249° |
| 2026-05-05 17:34 | 50.06944 | 8.70972 | 2036 ft | 141 kts | 251° |
| 2026-05-05 17:34 | 50.06618 | 8.69517 | 1783 ft | 143 kts | 251° |
| 2026-05-05 17:34 | 50.06270 | 8.68058 | 1523 ft | 145 kts | 248° |
| 2026-05-05 17:34 | 50.05870 | 8.66613 | 1193 ft | 147 kts | 251° |
| 2026-05-05 17:35 | 50.05613 | 8.65091 | 1197 ft | 146 kts | 254° |
| 2026-05-05 17:35 | 50.05222 | 8.63454 | 1692 ft | 176 kts | 248° |
| 2026-05-05 17:35 | 50.04794 | 8.61649 | 2477 ft | 188 kts | 251° |
| 2026-05-05 17:35 | 50.04299 | 8.59491 | 3177 ft | 225 kts | 250° |
| 2026-05-05 17:36 | 50.03752 | 8.57301 | 4742 ft | 216 kts | 246° |
| 2026-05-05 17:36 | 50.02890 | 8.55148 | 5121 ft | 258 kts | 220° |
| 2026-05-05 17:36 | 50.01310 | 8.54072 | 5026 ft | 250 kts | 184° |
| 2026-05-05 17:36 | 49.99558 | 8.54267 | 4908 ft | 250 kts | 181° |
| 2026-05-05 17:37 | 49.97862 | 8.53699 | 4759 ft | 248 kts | 194° |
| 2026-05-05 17:37 | 49.96719 | 8.53642 | 4670 ft | 253 kts | 168° |
| 2026-05-05 17:37 | 49.94923 | 8.55790 | 4733 ft | 257 kts | 117° |
| 2026-05-05 17:37 | 49.94657 | 8.58533 | 4900 ft | 265 kts | 80° |
| 2026-05-05 17:38 | 49.95367 | 8.61173 | 5017 ft | 264 kts | 61° |
| 2026-05-05 17:38 | 49.96256 | 8.63582 | 5015 ft | 253 kts | 64° |
| 2026-05-05 17:38 | 49.96946 | 8.66041 | 5011 ft | 248 kts | 71° |
| 2026-05-05 17:38 | 49.97504 | 8.68579 | 5008 ft | 247 kts | 73° |
| 2026-05-05 17:39 | 49.98037 | 8.71132 | 5005 ft | 247 kts | 73° |
| 2026-05-05 17:39 | 49.98556 | 8.73638 | 5000 ft | 246 kts | 73° |
| 2026-05-05 17:39 | 49.99083 | 8.76188 | 5001 ft | 247 kts | 73° |
| 2026-05-05 17:39 | 49.99609 | 8.78734 | 4998 ft | 247 kts | 73° |
| 2026-05-05 17:40 | 50.00125 | 8.81241 | 4999 ft | 246 kts | 73° |
| 2026-05-05 17:40 | 50.00651 | 8.83796 | 4871 ft | 250 kts | 73° |
| 2026-05-05 17:40 | 50.01174 | 8.86332 | 4681 ft | 243 kts | 73° |
| 2026-05-05 17:40 | 50.01687 | 8.88827 | 4477 ft | 243 kts | 73° |
| 2026-05-05 17:41 | 50.02199 | 8.91342 | 4246 ft | 242 kts | 73° |
| 2026-05-05 17:41 | 50.02704 | 8.93856 | 4024 ft | 242 kts | 73° |
| 2026-05-05 17:41 | 50.03188 | 8.96305 | 4008 ft | 239 kts | 73° |
| 2026-05-05 17:41 | 50.03970 | 8.98580 | 3980 ft | 240 kts | 47° |
| 2026-05-05 17:42 | 50.05220 | 9.00324 | 4004 ft | 241 kts | 39° |
| 2026-05-05 17:42 | 50.06703 | 9.01457 | 3975 ft | 239 kts | 5° |
| 2026-05-05 17:42 | 50.08262 | 9.00920 | 3982 ft | 234 kts | 326° |
| 2026-05-05 17:42 | 50.09257 | 8.98980 | 3987 ft | 230 kts | 292° |
| 2026-05-05 17:43 | 50.09763 | 8.96652 | 4002 ft | 229 kts | 285° |
| 2026-05-05 17:43 | 50.10215 | 8.94261 | 4012 ft | 229 kts | 284° |
| 2026-05-05 17:43 | 50.10661 | 8.91869 | 4002 ft | 228 kts | 284° |
| 2026-05-05 17:43 | 50.11087 | 8.89503 | 4006 ft | 221 kts | 281° |
| 2026-05-05 17:44 | 50.10903 | 8.87283 | 3971 ft | 208 kts | 245° |
| 2026-05-05 17:44 | 50.10340 | 8.85211 | 3936 ft | 209 kts | 250° |
| 2026-05-05 17:44 | 50.09847 | 8.83083 | 3682 ft | 203 kts | 249° |
| 2026-05-05 17:44 | 50.09380 | 8.81131 | 3426 ft | 183 kts | 250° |
| 2026-05-05 17:45 | 50.08952 | 8.79337 | 3187 ft | 173 kts | 250° |
| 2026-05-05 17:45 | 50.08531 | 8.77579 | 2953 ft | 170 kts | 250° |
| 2026-05-05 17:45 | 50.08123 | 8.75871 | 2743 ft | 169 kts | 250° |
| 2026-05-05 17:45 | 50.07716 | 8.74172 | 2520 ft | 167 kts | 250° |
| 2026-05-05 17:46 | 50.07316 | 8.72503 | 2286 ft | 155 kts | 250° |
| 2026-05-05 17:46 | 50.06960 | 8.71013 | 2101 ft | 146 kts | 250° |
| 2026-05-05 17:46 | 50.06602 | 8.69513 | 1893 ft | 146 kts | 250° |
| 2026-05-05 17:46 | 50.06255 | 8.68057 | 1702 ft | 145 kts | 250° |
| 2026-05-05 17:47 | 50.05900 | 8.66580 | 1505 ft | 145 kts | 250° |
| 2026-05-05 17:47 | 50.05544 | 8.65087 | 1300 ft | 146 kts | 250° |
| 2026-05-05 17:47 | 50.05196 | 8.63631 | 1099 ft | 146 kts | 250° |
| 2026-05-05 17:47 | 50.04841 | 8.62143 | 882 ft | 145 kts | 249° |
| 2026-05-05 17:48 | 50.04484 | 8.60660 | 691 ft | 148 kts | 248° |
| 2026-05-05 17:48 | 50.04130 | 8.59165 | 471 ft | 145 kts | 249° |
| 2026-05-05 17:48 | 50.03787 | 8.57735 | 370 ft | 131 kts | 249° |
| 2026-05-05 17:48 | 50.03562 | 8.56794 | 362 ft | 59 kts | 250° |
| 2026-05-05 17:49 | 50.03437 | 8.56213 | 362 ft | 53 kts | 263° |
| 2026-05-05 17:49 | 50.03473 | 8.55743 | 351 ft | 29 kts | 280° |
| 2026-05-05 17:49 | 50.03481 | 8.55669 | 354 ft | 0 kts | 278° |
| 2026-05-05 17:50 | 50.03481 | 8.55668 | 354 ft | 1 kts | 278° |
| 2026-05-05 17:50 | 50.03486 | 8.55613 | 350 ft | 11 kts | 279° |
| 2026-05-05 17:50 | 50.03485 | 8.55446 | 356 ft | 17 kts | 251° |
| 2026-05-05 17:51 | 50.03443 | 8.55267 | 357 ft | 18 kts | 250° |
| 2026-05-05 17:51 | 50.03397 | 8.55074 | 357 ft | 20 kts | 249° |
| 2026-05-05 17:51 | 50.03349 | 8.54869 | 353 ft | 21 kts | 249° |
| 2026-05-05 17:51 | 50.03295 | 8.54646 | 353 ft | 23 kts | 249° |
| 2026-05-05 17:52 | 50.03298 | 8.54484 | 353 ft | 8 kts | 322° |
| 2026-05-05 17:52 | 50.03338 | 8.54461 | 354 ft | 7 kts | 343° |
| 2026-05-05 17:52 | 50.03439 | 8.54409 | 357 ft | 17 kts | 341° |
| 2026-05-05 17:52 | 50.03549 | 8.54346 | 350 ft | 18 kts | 339° |
| 2026-05-05 17:53 | 50.03649 | 8.54320 | 354 ft | 9 kts | 27° |
| 2026-05-05 17:53 | 50.03673 | 8.54376 | 353 ft | 13 kts | 69° |
| 2026-05-05 17:53 | 50.03712 | 8.54543 | 356 ft | 17 kts | 69° |
| 2026-05-05 17:53 | 50.03752 | 8.54710 | 360 ft | 16 kts | 70° |
| 2026-05-05 17:54 | 50.03793 | 8.54880 | 360 ft | 17 kts | 70° |
| 2026-05-05 17:54 | 50.03834 | 8.55054 | 362 ft | 17 kts | 70° |
| 2026-05-05 17:54 | 50.03876 | 8.55232 | 359 ft | 18 kts | 70° |
| 2026-05-05 17:54 | 50.03923 | 8.55422 | 357 ft | 19 kts | 68° |
| 2026-05-05 17:55 | 50.03970 | 8.55622 | 361 ft | 20 kts | 71° |
| 2026-05-05 17:55 | 50.04019 | 8.55831 | 362 ft | 21 kts | 69° |
| 2026-05-05 17:55 | 50.04070 | 8.56041 | 364 ft | 21 kts | 70° |
| 2026-05-05 17:55 | 50.04122 | 8.56256 | 364 ft | 21 kts | 69° |
| 2026-05-05 17:56 | 50.04172 | 8.56470 | 367 ft | 21 kts | 69° |
| 2026-05-05 17:56 | 50.04222 | 8.56677 | 367 ft | 20 kts | 70° |
| 2026-05-05 17:56 | 50.04269 | 8.56878 | 368 ft | 20 kts | 69° |
| 2026-05-05 17:56 | 50.04320 | 8.57084 | 372 ft | 20 kts | 69° |
| 2026-05-05 17:57 | 50.04367 | 8.57288 | 370 ft | 21 kts | 70° |
| 2026-05-05 17:57 | 50.04418 | 8.57502 | 370 ft | 20 kts | 61° |
| 2026-05-05 17:57 | 50.04504 | 8.57552 | 370 ft | 10 kts | 338° |
| 2026-05-05 17:57 | 50.04534 | 8.57533 | 370 ft | 0 kts | 338° |
| 2026-05-05 17:59 | 50.04555 | 8.57520 | 385 ft | 8 kts | 338° |
| 2026-05-05 17:59 | 50.04598 | 8.57452 | 369 ft | 11 kts | 294° |
| 2026-05-05 17:59 | 50.04634 | 8.57389 | 368 ft | 4 kts | 343° |
| 2026-05-05 17:59 | 50.04664 | 8.57395 | 368 ft | 6 kts | 14° |
| 2026-05-05 18:00 | 50.04731 | 8.57428 | 369 ft | 10 kts | 30° |
| 2026-05-05 18:00 | 50.04751 | 8.57457 | 368 ft | 0 kts | 46° |